createdAt,value
2022-08-26T00:01:53.816Z,101469.63
2022-08-26T00:04:21.660Z,101467.66
2022-08-26T00:06:49.107Z,101469.28
2022-08-26T00:09:16.815Z,101476.09
2022-08-26T00:11:44.387Z,101476.91
2022-08-26T00:14:12.205Z,101481.59
2022-08-26T00:16:48.214Z,101470.09
2022-08-26T00:19:16.475Z,101474.72
2022-08-26T00:21:44.281Z,101470.31
2022-08-26T00:24:11.925Z,101470.63
2022-08-26T00:26:41.341Z,101472.59
2022-08-26T00:29:09.435Z,101460.13
2022-08-26T00:31:37.041Z,101461.03
2022-08-26T00:34:05.974Z,101463.13
2022-08-26T00:36:33.390Z,101468.66
2022-08-26T00:39:00.953Z,101469.25
2022-08-26T00:41:29.372Z,101461.16
2022-08-26T00:43:57.422Z,101462.78
2022-08-26T00:46:28.755Z,101470.16
2022-08-26T00:49:00.721Z,101473.06
2022-08-26T00:51:30.124Z,101477.91
2022-08-26T00:54:05.345Z,101469.88
2022-08-26T00:56:35.469Z,101467.75
2022-08-26T00:59:04.279Z,101474.91
2022-08-26T01:01:32.187Z,101478.19
2022-08-26T01:04:01.085Z,101474.03
2022-08-26T01:06:31.239Z,101472.75
2022-08-26T01:08:58.782Z,101470.63
2022-08-26T01:11:26.450Z,101474.38
2022-08-26T01:13:55.666Z,101467.91
2022-08-26T01:16:24.868Z,101471.94
2022-08-26T01:18:53.657Z,101463.75
2022-08-26T01:21:27.605Z,101462.25
2022-08-26T01:23:58.881Z,101464.09
2022-08-26T01:26:29.651Z,101467.31
2022-08-26T01:28:58.498Z,101460.03
2022-08-26T01:31:26.863Z,101458.78
2022-08-26T01:34:00.318Z,101466.97
2022-08-26T01:36:27.781Z,101464.00
2022-08-26T01:38:55.441Z,101461.34
2022-08-26T01:41:27.326Z,101468.00
2022-08-26T01:43:57.257Z,101470.13
2022-08-26T01:46:26.963Z,101474.38
2022-08-26T01:48:56.042Z,101469.31
2022-08-26T01:51:24.663Z,101467.69
2022-08-26T01:53:52.054Z,101467.47
2022-08-26T01:56:22.422Z,101469.31
2022-08-26T01:58:53.679Z,101472.69
2022-08-26T02:01:22.300Z,101470.94
2022-08-26T02:03:52.214Z,101478.59
2022-08-26T02:06:20.628Z,101474.09
2022-08-26T02:08:49.485Z,101471.44
2022-08-26T02:11:18.419Z,101475.69
2022-08-26T02:13:47.146Z,101471.50
2022-08-26T02:16:18.829Z,101470.72
2022-08-26T02:18:48.872Z,101479.16
2022-08-26T02:21:17.512Z,101481.81
2022-08-26T02:23:45.591Z,101481.56
2022-08-26T02:26:18.000Z,101483.41
2022-08-26T02:28:51.254Z,101481.03
2022-08-26T02:31:20.093Z,101486.44
2022-08-26T02:33:48.503Z,101483.56
2022-08-26T02:36:19.439Z,101475.34
2022-08-26T02:38:46.832Z,101481.25
2022-08-26T02:41:15.248Z,101470.28
2022-08-26T02:43:45.509Z,101465.19
2022-08-26T02:46:13.022Z,101471.53
2022-08-26T02:48:50.325Z,101346.38
2022-08-26T02:51:17.784Z,101466.47
2022-08-26T02:53:45.183Z,101463.72
2022-08-26T02:56:12.569Z,101463.81
2022-08-26T02:58:39.972Z,101461.16
2022-08-26T03:01:08.804Z,101469.34
2022-08-26T03:03:36.261Z,101468.88
2022-08-26T03:06:05.163Z,101470.50
2022-08-26T03:08:32.605Z,101465.19
2022-08-26T03:11:01.672Z,101464.63
2022-08-26T03:13:29.542Z,101473.75
2022-08-26T03:15:57.535Z,101471.44
2022-08-26T03:18:24.979Z,101472.00
2022-08-26T03:20:52.379Z,101475.34
2022-08-26T03:23:21.218Z,101476.63
2022-08-26T03:25:49.763Z,101472.72
2022-08-26T03:28:18.170Z,101474.34
2022-08-26T03:30:45.934Z,101478.25
2022-08-26T03:33:14.324Z,101484.72
2022-08-26T03:35:43.419Z,101474.78
2022-08-26T03:38:11.153Z,101470.28
2022-08-26T03:40:40.161Z,101468.66
2022-08-26T03:43:09.873Z,101466.38
2022-08-26T03:45:37.839Z,101474.09
2022-08-26T03:48:05.353Z,101469.69
2022-08-26T03:50:34.085Z,101468.19
2022-08-26T03:53:01.899Z,101476.16
2022-08-26T03:55:31.930Z,101481.47
2022-08-26T03:58:02.017Z,101471.31
2022-08-26T04:00:30.135Z,101473.97
2022-08-26T04:02:57.693Z,101475.13
2022-08-26T04:05:25.546Z,101467.50
2022-08-26T04:07:53.160Z,101448.56
2022-08-26T04:10:29.253Z,101467.19
2022-08-26T04:12:59.019Z,101463.81
2022-08-26T04:15:34.720Z,101458.97
2022-08-26T04:18:02.195Z,101463.13
2022-08-26T04:20:30.289Z,101460.13
2022-08-26T04:22:57.675Z,101467.72
2022-08-26T04:25:25.058Z,101472.00
2022-08-26T04:27:52.978Z,101454.13
2022-08-26T04:30:21.124Z,101463.47
2022-08-26T04:32:49.958Z,101461.84
2022-08-26T04:35:17.384Z,101465.88
2022-08-26T04:37:44.874Z,101465.56
2022-08-26T04:40:12.547Z,101464.03
2022-08-26T04:42:39.985Z,101464.41
2022-08-26T04:45:10.026Z,101467.63
2022-08-26T04:47:37.486Z,101480.69
2022-08-26T04:50:07.666Z,101468.22
2022-08-26T04:52:35.512Z,101471.31
2022-08-26T04:55:02.975Z,101475.00
2022-08-26T04:57:33.625Z,101475.81
2022-08-26T05:00:00.999Z,101476.41
2022-08-26T05:02:28.974Z,101487.94
2022-08-26T05:04:56.389Z,101484.22
2022-08-26T05:07:25.187Z,101485.50
2022-08-26T05:09:52.790Z,101484.47
2022-08-26T05:12:20.188Z,101488.63
2022-08-26T05:14:48.213Z,101489.88
2022-08-26T05:17:15.770Z,101327.22
2022-08-26T05:19:43.810Z,101489.97
2022-08-26T05:22:13.082Z,101494.72
2022-08-26T05:24:43.173Z,101488.84
2022-08-26T05:27:11.705Z,101500.94
2022-08-26T05:29:40.022Z,101500.34
2022-08-26T05:32:07.721Z,101337.53
2022-08-26T05:34:35.230Z,101508.19
2022-08-26T05:37:06.499Z,101502.06
2022-08-26T05:39:34.041Z,101514.75
2022-08-26T05:42:04.001Z,101517.53
2022-08-26T05:44:53.623Z,101512.00
2022-08-26T05:47:18.882Z,101529.16
2022-08-26T05:49:51.684Z,101526.75
2022-08-26T05:52:19.395Z,101521.34
2022-08-26T05:54:47.728Z,101539.13
2022-08-26T05:57:16.853Z,101519.16
2022-08-26T05:59:46.046Z,101522.53
2022-08-26T06:02:13.443Z,101519.53
2022-08-26T06:04:41.191Z,101525.53
2022-08-26T06:07:11.635Z,101508.94
2022-08-26T06:09:40.620Z,101524.50
2022-08-26T06:12:08.280Z,101528.31
2022-08-26T06:14:36.998Z,101533.28
2022-08-26T06:17:04.557Z,101529.94
2022-08-26T06:19:33.053Z,101535.94
2022-08-26T06:22:23.264Z,101527.28
2022-08-26T06:25:08.886Z,101531.00
2022-08-26T06:27:37.327Z,101532.25
2022-08-26T06:30:06.609Z,101538.88
2022-08-26T06:32:34.532Z,101541.63
2022-08-26T06:35:02.062Z,101543.72
2022-08-26T06:37:29.584Z,101544.97
2022-08-26T06:39:57.136Z,101539.88
2022-08-26T06:42:25.117Z,101542.72
2022-08-26T06:44:52.537Z,101540.84
2022-08-26T06:47:21.247Z,101541.44
2022-08-26T06:49:48.693Z,101546.16
2022-08-26T06:52:23.097Z,101551.72
2022-08-26T06:54:52.044Z,101552.44
2022-08-26T06:57:20.478Z,101561.91
2022-08-26T06:59:51.227Z,101555.34
2022-08-26T07:02:19.437Z,101556.97
2022-08-26T07:04:51.068Z,101559.50
2022-08-26T07:07:18.761Z,101579.38
2022-08-26T07:09:49.284Z,101580.09
2022-08-26T07:12:20.393Z,101571.63
2022-08-26T07:14:48.227Z,101572.66
2022-08-26T07:17:15.790Z,101583.78
2022-08-26T07:19:44.052Z,101586.53
2022-08-26T07:22:12.784Z,101590.72
2022-08-26T07:24:42.489Z,101584.59
2022-08-26T07:27:11.226Z,101586.91
2022-08-26T07:29:39.365Z,101589.78
2022-08-26T07:32:07.614Z,101587.69
2022-08-26T07:34:35.046Z,101593.59
2022-08-26T07:37:02.502Z,101599.22
2022-08-26T07:39:32.777Z,101593.59
2022-08-26T07:42:01.311Z,101597.16
2022-08-26T07:44:29.495Z,101597.06
2022-08-26T07:46:57.133Z,101595.78
2022-08-26T07:49:26.791Z,101605.47
2022-08-26T07:51:55.608Z,101607.75
2022-08-26T07:54:27.121Z,101605.91
2022-08-26T07:56:56.309Z,101611.13
2022-08-26T07:59:24.267Z,101614.38
2022-08-26T08:01:51.945Z,101620.50
2022-08-26T08:04:26.229Z,101618.88
2022-08-26T08:06:54.852Z,101621.31
2022-08-26T08:09:22.785Z,101626.38
2022-08-26T08:11:51.277Z,101626.47
2022-08-26T08:14:22.149Z,101627.44
2022-08-26T08:16:51.110Z,101627.31
2022-08-26T08:19:22.029Z,101618.53
2022-08-26T08:21:49.653Z,101614.69
2022-08-26T08:24:18.716Z,101611.94
2022-08-26T08:26:46.487Z,101608.00
2022-08-26T08:29:14.558Z,101611.69
2022-08-26T08:31:59.906Z,101606.47
2022-08-26T08:34:28.534Z,101614.94
2022-08-26T08:36:57.074Z,101623.22
2022-08-26T08:39:25.060Z,101628.19
2022-08-26T08:42:04.781Z,101624.59
2022-08-26T08:44:32.482Z,101629.56
2022-08-26T08:47:04.730Z,101635.28
2022-08-26T08:49:33.810Z,101629.50
2022-08-26T08:52:03.223Z,101626.06
2022-08-26T08:54:32.460Z,101619.47
2022-08-26T08:57:04.668Z,101621.19
2022-08-26T08:59:34.174Z,101621.84
2022-08-26T09:02:11.124Z,101629.94
2022-08-26T09:04:51.266Z,101644.19
2022-08-26T09:07:21.358Z,101638.88
2022-08-26T09:09:52.015Z,101635.19
2022-08-26T09:12:29.305Z,101625.69
2022-08-26T09:15:01.517Z,101637.69
2022-08-26T09:17:36.281Z,101637.63
2022-08-26T09:20:09.534Z,101620.53
2022-08-26T09:22:37.997Z,101643.59
2022-08-26T09:25:06.785Z,101633.19
2022-08-26T09:27:43.343Z,101635.63
2022-08-26T09:30:11.983Z,101634.75
2022-08-26T09:32:41.693Z,101633.34
2022-08-26T09:35:11.038Z,101638.69
2022-08-26T09:37:42.547Z,101639.16
2022-08-26T09:40:22.608Z,101631.03
2022-08-26T09:43:06.100Z,101638.38
2022-08-26T09:45:34.404Z,101648.59
2022-08-26T09:48:04.211Z,101540.44
2022-08-26T09:50:33.340Z,101639.31
2022-08-26T09:53:12.777Z,101635.38
2022-08-26T09:55:42.854Z,101642.22
2022-08-26T09:58:13.342Z,101644.50
2022-08-26T10:00:42.238Z,101642.03
2022-08-26T10:03:17.327Z,101640.19
2022-08-26T10:05:46.295Z,101636.97
2022-08-26T10:08:24.558Z,101636.25
2022-08-26T10:10:53.120Z,101638.91
2022-08-26T10:13:24.464Z,101640.63
2022-08-26T10:15:56.583Z,101642.59
2022-08-26T10:18:34.090Z,101651.75
2022-08-26T10:21:04.226Z,101645.25
2022-08-26T10:26:13.679Z,101654.53
2022-08-26T10:28:44.695Z,101644.19
2022-08-26T10:31:27.900Z,101647.31
2022-08-26T10:34:00.432Z,101642.56
2022-08-26T10:37:10.836Z,101651.59
2022-08-26T10:39:40.597Z,101655.50
2022-08-26T10:42:10.965Z,101642.38
2022-08-26T10:44:39.690Z,101643.59
2022-08-26T10:47:15.827Z,101642.25
2022-08-26T10:49:45.202Z,101637.06
2022-08-26T10:52:16.447Z,101645.44
2022-08-26T10:54:46.474Z,101642.84
2022-08-26T10:57:18.000Z,101636.34
2022-08-26T10:59:51.012Z,101634.31
2022-08-26T11:02:24.903Z,101641.69
2022-08-26T11:04:56.514Z,101643.19
2022-08-26T11:07:34.039Z,101651.88
2022-08-26T11:10:02.409Z,101652.84
2022-08-26T11:12:49.593Z,101646.09
2022-08-26T11:15:31.979Z,101659.81
2022-08-26T11:18:02.026Z,101650.34
2022-08-26T11:20:35.158Z,101646.19
2022-08-26T11:23:22.211Z,101650.34
2022-08-26T11:26:05.199Z,101643.59
2022-08-26T11:28:34.078Z,101656.41
2022-08-26T11:31:01.673Z,101651.06
2022-08-26T11:33:59.437Z,101647.88
2022-08-26T11:36:37.326Z,101664.09
2022-08-26T11:39:13.987Z,101655.94
2022-08-26T11:41:43.793Z,101651.41
2022-08-26T11:44:12.322Z,101649.59
2022-08-26T11:46:39.757Z,101651.31
2022-08-26T11:49:21.937Z,101652.47
2022-08-26T11:51:50.707Z,101654.41
2022-08-26T11:54:29.266Z,101654.56
2022-08-26T11:57:08.006Z,101648.34
2022-08-26T11:59:40.196Z,101650.94
2022-08-26T12:02:13.721Z,101651.91
2022-08-26T12:04:43.215Z,101647.81
2022-08-26T12:07:12.808Z,101652.25
2022-08-26T12:09:51.908Z,101648.31
2022-08-26T12:12:23.793Z,101647.56
2022-08-26T12:15:06.149Z,101644.56
2022-08-26T12:17:33.635Z,101639.75
2022-08-26T12:20:01.071Z,101645.41
2022-08-26T12:22:34.417Z,101642.22
2022-08-26T12:25:04.809Z,101644.25
2022-08-26T12:27:33.236Z,101645.94
2022-08-26T12:30:03.520Z,101643.09
2022-08-26T12:32:34.994Z,101662.91
2022-08-26T12:37:40.398Z,101659.16
2022-08-26T12:40:28.876Z,101507.16
2022-08-26T12:42:57.210Z,101666.25
2022-08-26T12:45:28.328Z,101660.06
2022-08-26T12:47:59.588Z,101663.13
2022-08-26T12:50:28.682Z,101676.63
2022-08-26T12:52:59.838Z,101664.03
2022-08-26T12:55:35.303Z,101659.47
2022-08-26T12:58:12.565Z,101667.84
2022-08-26T13:00:41.361Z,101660.47
2022-08-26T13:03:23.871Z,101669.38
2022-08-26T13:05:52.605Z,101665.38
2022-08-26T13:08:27.619Z,101657.59
2022-08-26T13:11:03.277Z,101663.88
2022-08-26T13:13:30.675Z,101659.19
2022-08-26T13:15:58.817Z,101661.47
2022-08-26T13:18:26.328Z,101652.88
2022-08-26T13:20:53.819Z,101504.41
2022-08-26T13:23:23.212Z,101655.44
2022-08-26T13:25:52.104Z,101654.13
2022-08-26T13:28:19.521Z,101654.59
2022-08-26T13:30:49.611Z,101657.41
2022-08-26T13:33:18.503Z,101654.34
2022-08-26T13:35:45.978Z,101655.16
2022-08-26T13:38:22.375Z,101654.28
2022-08-26T13:41:03.734Z,101652.91
2022-08-26T13:43:31.358Z,101644.81
2022-08-26T13:45:58.859Z,101648.53
2022-08-26T13:48:26.347Z,101643.69
2022-08-26T13:50:54.096Z,101647.06
2022-08-26T13:53:21.660Z,101649.00
2022-08-26T13:55:49.153Z,101644.00
2022-08-26T13:58:18.138Z,101648.84
2022-08-26T14:00:45.604Z,101652.41
2022-08-26T14:03:14.447Z,101643.22
2022-08-26T14:05:41.962Z,101651.75
2022-08-26T14:08:09.619Z,101651.88
2022-08-26T14:10:37.181Z,101646.13
2022-08-26T14:13:04.825Z,101650.78
2022-08-26T14:15:37.885Z,101647.56
2022-08-26T14:18:06.749Z,101652.16
2022-08-26T14:20:36.547Z,101649.41
2022-08-26T14:23:20.725Z,101652.06
2022-08-26T14:25:48.246Z,101659.84
2022-08-26T14:28:15.710Z,101651.09
2022-08-26T14:30:45.471Z,101653.94
2022-08-26T14:33:14.130Z,101647.41
2022-08-26T14:35:48.014Z,101647.16
2022-08-26T14:38:17.535Z,101655.38
2022-08-26T14:40:45.495Z,101645.56
2022-08-26T14:43:13.734Z,101659.25
2022-08-26T14:48:16.119Z,101639.09
2022-08-26T14:50:43.634Z,101641.44
2022-08-26T14:53:28.448Z,101642.72
2022-08-26T14:55:55.885Z,101642.00
2022-08-26T14:58:23.275Z,101477.56
2022-08-26T15:00:50.643Z,101637.97
2022-08-26T15:05:51.685Z,101638.00
2022-08-26T15:08:20.668Z,101647.06
2022-08-26T15:10:48.103Z,101637.94
2022-08-26T15:13:15.497Z,101632.25
2022-08-26T15:15:43.024Z,101636.69
2022-08-26T15:18:10.666Z,101638.28
2022-08-26T15:20:39.630Z,101631.34
2022-08-26T15:23:07.377Z,101643.66
2022-08-26T15:25:35.143Z,101643.47
2022-08-26T15:28:02.704Z,101640.28
2022-08-26T15:30:30.213Z,101625.94
2022-08-26T15:32:57.614Z,101629.25
2022-08-26T15:35:25.079Z,101636.16
2022-08-26T15:40:26.552Z,101642.31
2022-08-26T15:43:01.204Z,101634.59
2022-08-26T15:45:38.991Z,101631.81
2022-08-26T15:48:06.801Z,101635.22
2022-08-26T15:50:34.686Z,101627.69
2022-08-26T15:53:05.463Z,101623.19
2022-08-26T15:55:32.846Z,101623.53
2022-08-26T15:58:01.071Z,101624.06
2022-08-26T16:00:29.238Z,101614.19
2022-08-26T16:02:56.657Z,101617.25
2022-08-26T16:05:24.130Z,101613.84
2022-08-26T16:07:51.562Z,101609.47
2022-08-26T16:10:20.490Z,101612.72
2022-08-26T16:12:47.971Z,101612.06
2022-08-26T16:15:15.455Z,101608.28
2022-08-26T16:17:42.882Z,101611.72
2022-08-26T16:20:10.497Z,101611.66
2022-08-26T16:22:37.882Z,101609.97
2022-08-26T16:25:07.253Z,101611.94
2022-08-26T16:27:36.019Z,101605.16
2022-08-26T16:30:05.494Z,101609.97
2022-08-26T16:32:32.914Z,101605.38
2022-08-26T16:35:00.349Z,101605.66
2022-08-26T16:37:27.928Z,101605.03
2022-08-26T16:39:55.393Z,101608.03
2022-08-26T16:42:22.950Z,101598.81
2022-08-26T16:44:52.988Z,101602.31
2022-08-26T16:47:21.189Z,101607.03
2022-08-26T16:49:48.655Z,101607.59
2022-08-26T16:52:16.092Z,101615.59
2022-08-26T16:54:43.572Z,101614.00
2022-08-26T16:57:12.243Z,101617.38
2022-08-26T16:59:40.461Z,101622.38
2022-08-26T17:02:11.755Z,101618.22
2022-08-26T17:04:39.450Z,101622.66
2022-08-26T17:07:06.946Z,101625.19
2022-08-26T17:09:35.007Z,101631.31
2022-08-26T17:12:02.560Z,101625.78
2022-08-26T17:14:30.315Z,101626.16
2022-08-26T17:16:57.728Z,101626.63
2022-08-26T17:19:27.190Z,101626.38
2022-08-26T17:21:54.590Z,101628.09
2022-08-26T17:24:22.071Z,101625.91
2022-08-26T17:26:50.717Z,101627.97
2022-08-26T17:29:22.914Z,101626.13
2022-08-26T17:31:50.307Z,101638.06
2022-08-26T17:34:17.753Z,101629.75
2022-08-26T17:36:46.724Z,101634.25
2022-08-26T17:39:14.150Z,101639.00
2022-08-26T17:41:41.875Z,101642.22
2022-08-26T17:44:09.328Z,101635.66
2022-08-26T17:46:38.507Z,101643.13
2022-08-26T17:49:06.369Z,101642.00
2022-08-26T17:51:33.831Z,101639.56
2022-08-26T17:54:03.746Z,101650.88
2022-08-26T17:56:31.669Z,101656.63
2022-08-26T17:59:02.368Z,101677.06
2022-08-26T18:01:31.641Z,101660.50
2022-08-26T18:04:00.631Z,101660.50
2022-08-26T18:06:28.859Z,101659.13
2022-08-26T18:08:56.578Z,101666.16
2022-08-26T18:11:25.376Z,101668.09
2022-08-26T18:13:53.367Z,101663.34
2022-08-26T18:16:21.030Z,101671.09
2022-08-26T18:18:49.593Z,101661.81
2022-08-26T18:21:19.212Z,101658.78
2022-08-26T18:23:47.679Z,101664.47
2022-08-26T18:26:19.244Z,101663.53
2022-08-26T18:28:48.347Z,101667.38
2022-08-26T18:31:16.150Z,101668.00
2022-08-26T18:33:43.994Z,101504.59
2022-08-26T18:36:15.895Z,101680.41
2022-08-26T18:38:43.343Z,101670.72
2022-08-26T18:41:10.763Z,101670.72
2022-08-26T18:43:38.176Z,101674.25
2022-08-26T18:46:08.152Z,101671.25
2022-08-26T18:48:36.671Z,101683.63
2022-08-26T18:51:04.728Z,101684.66
2022-08-26T18:53:32.678Z,101687.63
2022-08-26T18:56:01.825Z,101683.66
2022-08-26T18:58:29.237Z,101681.47
2022-08-26T19:00:56.690Z,101682.25
2022-08-26T19:03:25.418Z,101692.44
2022-08-26T19:05:52.966Z,101694.88
2022-08-26T19:08:20.687Z,101692.28
2022-08-26T19:10:48.317Z,101704.75
2022-08-26T19:13:16.229Z,101696.56
2022-08-26T19:15:46.251Z,101702.13
2022-08-26T19:18:14.843Z,101699.34
2022-08-26T19:20:46.772Z,101704.88
2022-08-26T19:23:30.470Z,101712.81
2022-08-26T19:25:59.064Z,101706.63
2022-08-26T19:28:26.521Z,101718.47
2022-08-26T19:30:54.134Z,101715.81
2022-08-26T19:33:21.566Z,101720.41
2022-08-26T19:35:50.745Z,101717.41
2022-08-26T19:38:18.366Z,101718.03
2022-08-26T19:40:45.761Z,101715.22
2022-08-26T19:43:13.262Z,101715.69
2022-08-26T19:45:42.216Z,101723.00
2022-08-26T19:48:11.456Z,101719.13
2022-08-26T19:50:39.313Z,101714.94
2022-08-26T19:53:09.144Z,101718.16
2022-08-26T19:55:37.060Z,101722.25
2022-08-26T19:58:04.580Z,101724.72
2022-08-26T20:00:33.702Z,101712.53
2022-08-26T20:03:01.677Z,101720.09
2022-08-26T20:05:29.247Z,101712.19
2022-08-26T20:07:58.213Z,101720.34
2022-08-26T20:10:27.113Z,101720.19
2022-08-26T20:12:54.574Z,101715.72
2022-08-26T20:15:23.017Z,101721.88
2022-08-26T20:17:51.296Z,101731.28
2022-08-26T20:20:36.894Z,101717.88
2022-08-26T20:23:05.208Z,101718.09
2022-08-26T20:25:34.673Z,101720.53
2022-08-26T20:28:02.325Z,101720.38
2022-08-26T20:30:29.859Z,101716.94
2022-08-26T20:32:57.463Z,101723.25
2022-08-26T20:35:25.190Z,101720.59
2022-08-26T20:37:52.841Z,101719.41
2022-08-26T20:40:21.370Z,101722.06
2022-08-26T20:42:50.470Z,101713.34
2022-08-26T20:45:17.910Z,101712.56
2022-08-26T20:47:45.522Z,101704.44
2022-08-26T20:50:13.192Z,101710.34
2022-08-26T20:52:41.003Z,101709.13
2022-08-26T20:55:09.153Z,101711.19
2022-08-26T20:57:37.300Z,101713.44
2022-08-26T21:00:07.401Z,101710.38
2022-08-26T21:02:34.947Z,101715.88
2022-08-26T21:05:02.731Z,101723.63
2022-08-26T21:07:30.261Z,101715.47
2022-08-26T21:09:58.023Z,101713.84
2022-08-26T21:12:26.868Z,101720.34
2022-08-26T21:14:54.870Z,101716.09
2022-08-26T21:17:23.818Z,101713.47
2022-08-26T21:19:51.266Z,101712.66
2022-08-26T21:22:18.728Z,101721.59
2022-08-26T21:24:46.198Z,101711.41
2022-08-26T21:27:13.620Z,101705.53
2022-08-26T21:29:45.079Z,101698.22
2022-08-26T21:32:16.607Z,101707.97
2022-08-26T21:34:45.492Z,101714.28
2022-08-26T21:37:16.884Z,101709.75
2022-08-26T21:39:44.867Z,101709.19
2022-08-26T21:42:12.274Z,101700.22
2022-08-26T21:44:39.747Z,101705.31
2022-08-26T21:47:07.427Z,101709.56
2022-08-26T21:49:34.872Z,101712.22
2022-08-26T21:52:04.549Z,101713.44
2022-08-26T21:54:32.271Z,101721.34
2022-08-26T21:56:59.664Z,101711.59
2022-08-26T21:59:27.042Z,101713.03
2022-08-26T22:01:54.620Z,101719.31
2022-08-26T22:04:22.237Z,101729.50
2022-08-26T22:06:50.680Z,101719.75
2022-08-26T22:09:20.012Z,101718.50
2022-08-26T22:11:47.625Z,101732.34
2022-08-26T22:14:15.696Z,101728.50
2022-08-26T22:16:43.175Z,101728.47
2022-08-26T22:19:18.199Z,101726.06
2022-08-26T22:21:46.194Z,101731.75
2022-08-26T22:24:13.603Z,101736.19
2022-08-26T22:26:43.071Z,101735.78
2022-08-26T22:29:10.533Z,101729.09
2022-08-26T22:31:38.908Z,101730.53
2022-08-26T22:34:07.541Z,101727.25
2022-08-26T22:36:35.476Z,101725.22
2022-08-26T22:39:10.870Z,101723.81
2022-08-26T22:41:38.304Z,101722.78
2022-08-26T22:44:07.508Z,101710.97
2022-08-26T22:46:36.665Z,101714.81
2022-08-26T22:49:04.967Z,101718.09
2022-08-26T22:51:33.295Z,101719.72
2022-08-26T22:54:00.715Z,101710.75
2022-08-26T22:56:28.389Z,101709.31
2022-08-26T22:58:55.779Z,101712.75
2022-08-26T23:01:24.717Z,101710.34
2022-08-26T23:03:52.194Z,101706.06
2022-08-26T23:06:19.662Z,101706.66
2022-08-26T23:08:47.381Z,101708.28
2022-08-26T23:11:15.785Z,101704.84
2022-08-26T23:13:43.293Z,101700.56
2022-08-26T23:16:12.324Z,101705.25
2022-08-26T23:18:41.716Z,101702.56
2022-08-26T23:21:09.400Z,101708.25
2022-08-26T23:23:38.274Z,101699.31
2022-08-26T23:26:06.879Z,101708.88
2022-08-26T23:28:34.637Z,101696.03
2022-08-26T23:31:02.083Z,101699.91
2022-08-26T23:33:49.571Z,101694.63
2022-08-26T23:36:18.407Z,101693.81
2022-08-26T23:38:53.054Z,101699.72
2022-08-26T23:41:20.812Z,101690.72
2022-08-26T23:43:48.173Z,101691.31
2022-08-26T23:46:15.873Z,101695.81
2022-08-26T23:48:43.291Z,101687.25
2022-08-26T23:51:28.034Z,101686.66
2022-08-26T23:53:57.787Z,101703.94
2022-08-26T23:56:26.751Z,101688.88
2022-08-26T23:58:54.758Z,101689.09
